1 Life — ZGEB2 — position and weather

sailwx.info

Track history (hours):
 
Tides and Currents Weather Stations Pressure Air Temp Water Temp Dewpoint Dewpoint Depression Visibility Wind Speed Wind Dir Waves Ship Positions

1 Life

Last reported at 2017-Aug-22 15:01 UTC. Time now 2017-Sep-25 19:05 UTC.
Position N 37°14' E 025°51'.
Warning: this ship's position is 34 days out of date.

Length 23 m.

MMSI: 319068200.

Date/timePositionNaut miles runAvg speedWind from/ knotsBaromVisibWave heightAir tempDewpointWater temp
2017-Aug-22 15:01N 37°14' E 025°51'116.0
2017-Aug-22 14:58N 37°14' E 025°50'1716.8
2017-Aug-22 13:58N 37°21' E 025°31'714.9
2017-Aug-22 13:29N 37°24' E 025°22'612.5
2017-Aug-22 13:00N 37°26' E 025°15'713.2
2017-Aug-22 12:30N 37°30' E 025°09'6811.8
2017-Aug-22 06:43N 37°43' E 023°44'312.5
2017-Aug-22 06:26N 37°45' E 023°40'512.3
2017-Aug-22 06:00N 37°47' E 023°34'  
Track history (hours):
 
Tides and Currents Weather Stations Pressure Air Temp Water Temp Dewpoint Dewpoint Depression Visibility Wind Speed Wind Dir Waves Ship Positions

1 Life

Last reported at 2017-Aug-22 15:01 UTC. Time now 2017-Sep-25 19:05 UTC.
Position N 37°14' E 025°51'.
Warning: this ship's position is 34 days out of date.

Length 23 m.

MMSI: 319068200.

Date/timePositionNaut miles runAvg speedWind from/ knotsBaromVisibWave heightAir tempDewpointWater temp
2017-Aug-22 15:01N 37°14' E 025°51'116.0
2017-Aug-22 14:58N 37°14' E 025°50'1716.8
2017-Aug-22 13:58N 37°21' E 025°31'714.9
2017-Aug-22 13:29N 37°24' E 025°22'612.5
2017-Aug-22 13:00N 37°26' E 025°15'713.2
2017-Aug-22 12:30N 37°30' E 025°09'6811.8
2017-Aug-22 06:43N 37°43' E 023°44'312.5
2017-Aug-22 06:26N 37°45' E 023°40'512.3
2017-Aug-22 06:00N 37°47' E 023°34'  

Dump ship's entire track history